Levelroad, Alabama
Current Conditions -  °F | °C
As of 6:55 PM on Friday 24 Oct 2014 (Local Time) from KLGC Reporting Station
Clear Clear  
Wind Chill: 58°   Ceiling: Unl
Heat Index: 58°   Visibility: 10mi
Dew Point: 53°   Wind: 0mph
Humidity: 83%   Direction: NA
Pressure: 30.02"   Gusts: NA
Location:  33.1661°N, 85.5111°W
Report Text: KLGC 242355Z AUTO 00000KT 10SM CLR 15/12 A3002 RMK AO2 T01450116 10245 20145
Loading
Personal Weather Stations






























Interactive Weather Map New forecast layout! Learn more

10-Day Weather Forecast

Advertisements
Track Severe Weather on mobile